sensor_id;sensor_type;location;lat;lon;timestamp;temperature;humidity
336;DHT22;156;48.738;9.228;2022-08-07T00:01:56;17.90;1.00
336;DHT22;156;48.738;9.228;2022-08-07T00:04:22;17.90;1.00
336;DHT22;156;48.738;9.228;2022-08-07T00:06:49;17.90;1.00
336;DHT22;156;48.738;9.228;2022-08-07T00:09:16;17.80;1.00
336;DHT22;156;48.738;9.228;2022-08-07T00:11:45;17.90;1.00
336;DHT22;156;48.738;9.228;2022-08-07T00:14:12;17.80;1.00
336;DHT22;156;48.738;9.228;2022-08-07T00:16:39;17.80;1.00
336;DHT22;156;48.738;9.228;2022-08-07T00:19:06;17.70;1.00
336;DHT22;156;48.738;9.228;2022-08-07T00:21:33;17.50;1.00
336;DHT22;156;48.738;9.228;2022-08-07T00:24:00;17.30;1.00
336;DHT22;156;48.738;9.228;2022-08-07T00:26:27;17.20;1.00
336;DHT22;156;48.738;9.228;2022-08-07T00:28:55;17.20;1.00
336;DHT22;156;48.738;9.228;2022-08-07T00:31:22;17.10;1.00
336;DHT22;156;48.738;9.228;2022-08-07T00:33:50;17.00;1.00
336;DHT22;156;48.738;9.228;2022-08-07T00:36:17;17.10;1.00
336;DHT22;156;48.738;9.228;2022-08-07T00:38:44;17.10;1.00
336;DHT22;156;48.738;9.228;2022-08-07T00:41:11;17.10;1.00
336;DHT22;156;48.738;9.228;2022-08-07T00:43:38;17.30;1.00
336;DHT22;156;48.738;9.228;2022-08-07T00:46:06;17.30;1.00
336;DHT22;156;48.738;9.228;2022-08-07T00:48:33;17.10;1.00
336;DHT22;156;48.738;9.228;2022-08-07T00:51:00;17.10;1.00
336;DHT22;156;48.738;9.228;2022-08-07T00:53:28;17.20;1.00
336;DHT22;156;48.738;9.228;2022-08-07T00:55:55;17.10;1.00
336;DHT22;156;48.738;9.228;2022-08-07T00:58:22;17.20;1.00
336;DHT22;156;48.738;9.228;2022-08-07T01:00:49;17.30;1.00
336;DHT22;156;48.738;9.228;2022-08-07T01:03:18;17.40;1.00
336;DHT22;156;48.738;9.228;2022-08-07T01:05:45;17.30;1.00
336;DHT22;156;48.738;9.228;2022-08-07T01:08:13;17.30;1.00
336;DHT22;156;48.738;9.228;2022-08-07T01:10:41;17.20;1.00
336;DHT22;156;48.738;9.228;2022-08-07T01:13:08;17.30;1.00
336;DHT22;156;48.738;9.228;2022-08-07T01:15:36;17.20;1.00
336;DHT22;156;48.738;9.228;2022-08-07T01:18:04;17.10;1.00
336;DHT22;156;48.738;9.228;2022-08-07T01:20:37;17.00;1.00
336;DHT22;156;48.738;9.228;2022-08-07T01:23:08;16.90;1.00
336;DHT22;156;48.738;9.228;2022-08-07T01:25:36;16.80;1.00
336;DHT22;156;48.738;9.228;2022-08-07T01:28:05;16.80;1.00
336;DHT22;156;48.738;9.228;2022-08-07T01:30:32;16.90;1.00
336;DHT22;156;48.738;9.228;2022-08-07T01:32:59;16.70;1.00
336;DHT22;156;48.738;9.228;2022-08-07T01:35:26;16.70;1.00
336;DHT22;156;48.738;9.228;2022-08-07T01:37:53;16.60;1.00
336;DHT22;156;48.738;9.228;2022-08-07T01:40:22;16.50;1.00
336;DHT22;156;48.738;9.228;2022-08-07T01:42:50;16.40;1.00
336;DHT22;156;48.738;9.228;2022-08-07T01:45:17;16.40;1.00
336;DHT22;156;48.738;9.228;2022-08-07T01:47:46;16.30;1.00
336;DHT22;156;48.738;9.228;2022-08-07T01:50:14;16.40;1.00
336;DHT22;156;48.738;9.228;2022-08-07T01:52:42;16.30;1.00
336;DHT22;156;48.738;9.228;2022-08-07T01:55:11;16.30;1.00
336;DHT22;156;48.738;9.228;2022-08-07T01:57:41;16.30;1.00
336;DHT22;156;48.738;9.228;2022-08-07T02:00:10;16.20;1.00
336;DHT22;156;48.738;9.228;2022-08-07T02:02:42;16.20;1.00
336;DHT22;156;48.738;9.228;2022-08-07T02:05:13;16.10;1.00
336;DHT22;156;48.738;9.228;2022-08-07T02:07:46;16.10;1.00
336;DHT22;156;48.738;9.228;2022-08-07T02:10:16;16.00;1.00
336;DHT22;156;48.738;9.228;2022-08-07T02:12:47;15.90;1.00
336;DHT22;156;48.738;9.228;2022-08-07T02:15:17;15.90;1.00
336;DHT22;156;48.738;9.228;2022-08-07T02:20:18;16.00;1.00
336;DHT22;156;48.738;9.228;2022-08-07T02:22:46;15.90;1.00
336;DHT22;156;48.738;9.228;2022-08-07T02:25:15;15.90;1.00
336;DHT22;156;48.738;9.228;2022-08-07T02:27:45;15.80;1.00
336;DHT22;156;48.738;9.228;2022-08-07T02:30:13;15.80;1.00
336;DHT22;156;48.738;9.228;2022-08-07T02:32:40;15.80;1.00
336;DHT22;156;48.738;9.228;2022-08-07T02:35:09;15.80;1.00
336;DHT22;156;48.738;9.228;2022-08-07T02:37:39;15.80;1.00
336;DHT22;156;48.738;9.228;2022-08-07T02:40:08;15.70;1.00
336;DHT22;156;48.738;9.228;2022-08-07T02:42:36;15.70;1.00
336;DHT22;156;48.738;9.228;2022-08-07T02:45:07;15.60;1.00
336;DHT22;156;48.738;9.228;2022-08-07T02:47:36;15.60;1.00
336;DHT22;156;48.738;9.228;2022-08-07T02:50:04;15.60;1.00
336;DHT22;156;48.738;9.228;2022-08-07T02:52:35;15.60;1.00
336;DHT22;156;48.738;9.228;2022-08-07T02:55:06;15.60;1.00
336;DHT22;156;48.738;9.228;2022-08-07T02:57:35;15.70;1.00
336;DHT22;156;48.738;9.228;2022-08-07T03:00:07;15.60;1.00
336;DHT22;156;48.738;9.228;2022-08-07T03:02:36;15.60;1.00
336;DHT22;156;48.738;9.228;2022-08-07T03:05:06;15.50;1.00
336;DHT22;156;48.738;9.228;2022-08-07T03:07:35;15.60;1.00
336;DHT22;156;48.738;9.228;2022-08-07T03:10:03;15.50;1.00
336;DHT22;156;48.738;9.228;2022-08-07T03:12:31;15.50;1.00
336;DHT22;156;48.738;9.228;2022-08-07T03:14:59;15.60;1.00
336;DHT22;156;48.738;9.228;2022-08-07T03:17:28;15.70;1.00
336;DHT22;156;48.738;9.228;2022-08-07T03:19:56;15.70;1.00
336;DHT22;156;48.738;9.228;2022-08-07T03:22:23;15.60;1.00
336;DHT22;156;48.738;9.228;2022-08-07T03:24:52;15.60;1.00
336;DHT22;156;48.738;9.228;2022-08-07T03:27:19;15.50;1.00
336;DHT22;156;48.738;9.228;2022-08-07T03:29:49;15.50;1.00
336;DHT22;156;48.738;9.228;2022-08-07T03:32:23;15.60;1.00
336;DHT22;156;48.738;9.228;2022-08-07T03:34:55;15.50;1.00
336;DHT22;156;48.738;9.228;2022-08-07T03:37:23;15.40;1.00
336;DHT22;156;48.738;9.228;2022-08-07T03:39:51;15.30;1.00
336;DHT22;156;48.738;9.228;2022-08-07T03:42:19;15.30;1.00
336;DHT22;156;48.738;9.228;2022-08-07T03:44:47;15.30;1.00
336;DHT22;156;48.738;9.228;2022-08-07T03:47:14;15.20;1.00
336;DHT22;156;48.738;9.228;2022-08-07T03:49:42;15.10;1.00
336;DHT22;156;48.738;9.228;2022-08-07T03:52:11;15.00;1.00
336;DHT22;156;48.738;9.228;2022-08-07T03:54:38;14.90;1.00
336;DHT22;156;48.738;9.228;2022-08-07T03:57:06;14.80;1.00
336;DHT22;156;48.738;9.228;2022-08-07T03:59:33;14.80;1.00
336;DHT22;156;48.738;9.228;2022-08-07T04:02:00;14.80;1.00
336;DHT22;156;48.738;9.228;2022-08-07T04:04:28;14.80;1.00
336;DHT22;156;48.738;9.228;2022-08-07T04:06:56;14.80;1.00
336;DHT22;156;48.738;9.228;2022-08-07T04:09:25;14.80;1.00
336;DHT22;156;48.738;9.228;2022-08-07T04:11:53;14.80;1.00
336;DHT22;156;48.738;9.228;2022-08-07T04:14:21;14.80;1.00
336;DHT22;156;48.738;9.228;2022-08-07T04:16:50;14.80;1.00
336;DHT22;156;48.738;9.228;2022-08-07T04:19:17;14.80;1.00
336;DHT22;156;48.738;9.228;2022-08-07T04:21:44;14.80;1.00
336;DHT22;156;48.738;9.228;2022-08-07T04:24:11;14.80;1.00
336;DHT22;156;48.738;9.228;2022-08-07T04:26:40;14.70;1.00
336;DHT22;156;48.738;9.228;2022-08-07T04:29:07;14.80;1.00
336;DHT22;156;48.738;9.228;2022-08-07T04:31:36;14.90;1.00
336;DHT22;156;48.738;9.228;2022-08-07T04:34:04;14.90;1.00
336;DHT22;156;48.738;9.228;2022-08-07T04:36:31;14.90;1.00
336;DHT22;156;48.738;9.228;2022-08-07T04:38:59;14.90;1.00
336;DHT22;156;48.738;9.228;2022-08-07T04:41:26;15.00;1.00
336;DHT22;156;48.738;9.228;2022-08-07T04:43:55;15.00;1.00
336;DHT22;156;48.738;9.228;2022-08-07T04:46:26;15.00;1.00
336;DHT22;156;48.738;9.228;2022-08-07T04:49:00;15.00;1.00
336;DHT22;156;48.738;9.228;2022-08-07T04:51:33;15.00;1.00
336;DHT22;156;48.738;9.228;2022-08-07T04:54:09;15.00;1.00
336;DHT22;156;48.738;9.228;2022-08-07T04:56:45;15.00;1.00
336;DHT22;156;48.738;9.228;2022-08-07T04:59:20;15.10;1.00
336;DHT22;156;48.738;9.228;2022-08-07T05:01:53;15.20;1.00
336;DHT22;156;48.738;9.228;2022-08-07T05:04:32;15.30;1.00
336;DHT22;156;48.738;9.228;2022-08-07T05:07:08;15.40;1.00
336;DHT22;156;48.738;9.228;2022-08-07T05:09:40;15.40;1.00
336;DHT22;156;48.738;9.228;2022-08-07T05:12:09;15.40;1.00
336;DHT22;156;48.738;9.228;2022-08-07T05:14:41;15.50;1.00
336;DHT22;156;48.738;9.228;2022-08-07T05:17:11;15.60;1.00
336;DHT22;156;48.738;9.228;2022-08-07T05:19:45;15.60;1.00
336;DHT22;156;48.738;9.228;2022-08-07T05:22:15;15.70;1.00
336;DHT22;156;48.738;9.228;2022-08-07T05:24:43;15.80;1.00
336;DHT22;156;48.738;9.228;2022-08-07T05:27:14;15.80;1.00
336;DHT22;156;48.738;9.228;2022-08-07T05:29:44;15.90;1.00
336;DHT22;156;48.738;9.228;2022-08-07T05:32:13;16.00;1.00
336;DHT22;156;48.738;9.228;2022-08-07T05:34:43;16.10;1.00
336;DHT22;156;48.738;9.228;2022-08-07T05:37:12;16.10;1.00
336;DHT22;156;48.738;9.228;2022-08-07T05:39:40;16.20;1.00
336;DHT22;156;48.738;9.228;2022-08-07T05:42:08;16.30;1.00
336;DHT22;156;48.738;9.228;2022-08-07T05:44:36;16.30;1.00
336;DHT22;156;48.738;9.228;2022-08-07T05:47:07;16.40;1.00
336;DHT22;156;48.738;9.228;2022-08-07T05:49:35;16.40;1.00
336;DHT22;156;48.738;9.228;2022-08-07T05:52:03;16.40;1.70
336;DHT22;156;48.738;9.228;2022-08-07T05:54:30;16.60;2.50
336;DHT22;156;48.738;9.228;2022-08-07T05:56:58;16.50;7.90
336;DHT22;156;48.738;9.228;2022-08-07T05:59:27;16.60;4.80
336;DHT22;156;48.738;9.228;2022-08-07T06:01:57;16.70;1.10
336;DHT22;156;48.738;9.228;2022-08-07T06:04:26;16.80;1.20
336;DHT22;156;48.738;9.228;2022-08-07T06:06:54;16.90;1.00
336;DHT22;156;48.738;9.228;2022-08-07T06:09:22;16.90;3.50
336;DHT22;156;48.738;9.228;2022-08-07T06:11:50;17.10;3.50
336;DHT22;156;48.738;9.228;2022-08-07T06:14:17;17.20;1.50
336;DHT22;156;48.738;9.228;2022-08-07T06:16:46;17.40;1.00
336;DHT22;156;48.738;9.228;2022-08-07T06:19:14;17.40;1.00
336;DHT22;156;48.738;9.228;2022-08-07T06:21:44;17.20;5.00
336;DHT22;156;48.738;9.228;2022-08-07T06:24:12;17.50;4.60
336;DHT22;156;48.738;9.228;2022-08-07T06:26:39;17.70;2.80
336;DHT22;156;48.738;9.228;2022-08-07T06:29:06;17.80;6.80
336;DHT22;156;48.738;9.228;2022-08-07T06:31:33;17.80;9.70
336;DHT22;156;48.738;9.228;2022-08-07T06:34:00;17.90;10.30
336;DHT22;156;48.738;9.228;2022-08-07T06:36:27;18.10;7.80
336;DHT22;156;48.738;9.228;2022-08-07T06:38:56;18.10;5.60
336;DHT22;156;48.738;9.228;2022-08-07T06:41:25;18.20;3.70
336;DHT22;156;48.738;9.228;2022-08-07T06:43:54;18.30;2.20
336;DHT22;156;48.738;9.228;2022-08-07T06:46:22;18.50;1.00
336;DHT22;156;48.738;9.228;2022-08-07T06:48:49;18.70;1.00
336;DHT22;156;48.738;9.228;2022-08-07T06:51:19;18.80;1.00
336;DHT22;156;48.738;9.228;2022-08-07T06:53:47;19.00;1.00
336;DHT22;156;48.738;9.228;2022-08-07T06:56:16;19.00;1.00
336;DHT22;156;48.738;9.228;2022-08-07T06:59:05;19.10;1.00
336;DHT22;156;48.738;9.228;2022-08-07T07:01:33;19.30;1.00
336;DHT22;156;48.738;9.228;2022-08-07T07:04:02;19.30;1.00
336;DHT22;156;48.738;9.228;2022-08-07T07:06:30;19.30;1.00
336;DHT22;156;48.738;9.228;2022-08-07T07:09:15;19.40;1.00
336;DHT22;156;48.738;9.228;2022-08-07T07:12:03;19.40;1.00
336;DHT22;156;48.738;9.228;2022-08-07T07:14:51;19.40;1.00
336;DHT22;156;48.738;9.228;2022-08-07T07:17:25;19.50;1.00
336;DHT22;156;48.738;9.228;2022-08-07T07:19:56;19.60;1.00
336;DHT22;156;48.738;9.228;2022-08-07T07:22:26;19.60;1.00
336;DHT22;156;48.738;9.228;2022-08-07T07:24:54;19.70;1.00
336;DHT22;156;48.738;9.228;2022-08-07T07:27:27;19.70;1.00
336;DHT22;156;48.738;9.228;2022-08-07T07:29:58;19.70;1.00
336;DHT22;156;48.738;9.228;2022-08-07T07:32:28;19.80;1.00
336;DHT22;156;48.738;9.228;2022-08-07T07:34:58;19.90;1.00
336;DHT22;156;48.738;9.228;2022-08-07T07:37:27;19.90;1.00
336;DHT22;156;48.738;9.228;2022-08-07T07:39:59;20.10;1.00
336;DHT22;156;48.738;9.228;2022-08-07T07:42:29;20.00;1.00
336;DHT22;156;48.738;9.228;2022-08-07T07:44:59;19.90;1.00
336;DHT22;156;48.738;9.228;2022-08-07T07:47:27;20.20;1.00
336;DHT22;156;48.738;9.228;2022-08-07T07:49:55;20.20;1.00
336;DHT22;156;48.738;9.228;2022-08-07T07:52:23;20.40;1.00
336;DHT22;156;48.738;9.228;2022-08-07T07:54:52;20.60;1.00
336;DHT22;156;48.738;9.228;2022-08-07T07:57:22;20.80;1.00
336;DHT22;156;48.738;9.228;2022-08-07T07:59:50;20.80;1.00
336;DHT22;156;48.738;9.228;2022-08-07T08:02:19;20.80;1.00
336;DHT22;156;48.738;9.228;2022-08-07T08:04:47;20.80;1.00
336;DHT22;156;48.738;9.228;2022-08-07T08:07:14;21.00;1.00
336;DHT22;156;48.738;9.228;2022-08-07T08:09:43;21.10;1.00
336;DHT22;156;48.738;9.228;2022-08-07T08:12:15;21.20;1.00
336;DHT22;156;48.738;9.228;2022-08-07T08:14:43;21.30;1.00
336;DHT22;156;48.738;9.228;2022-08-07T08:17:12;21.40;1.00
336;DHT22;156;48.738;9.228;2022-08-07T08:19:41;21.50;1.00
336;DHT22;156;48.738;9.228;2022-08-07T08:22:10;21.60;1.00
336;DHT22;156;48.738;9.228;2022-08-07T08:24:56;21.50;1.00
336;DHT22;156;48.738;9.228;2022-08-07T08:27:43;21.50;1.00
336;DHT22;156;48.738;9.228;2022-08-07T08:30:12;21.50;1.00
336;DHT22;156;48.738;9.228;2022-08-07T08:32:43;21.50;1.00
336;DHT22;156;48.738;9.228;2022-08-07T08:35:14;21.40;1.00
336;DHT22;156;48.738;9.228;2022-08-07T08:37:44;21.10;1.00
336;DHT22;156;48.738;9.228;2022-08-07T08:40:21;21.00;1.00
336;DHT22;156;48.738;9.228;2022-08-07T08:42:53;21.20;1.00
336;DHT22;156;48.738;9.228;2022-08-07T08:45:25;21.40;1.00
336;DHT22;156;48.738;9.228;2022-08-07T08:48:05;21.50;1.00
336;DHT22;156;48.738;9.228;2022-08-07T08:50:38;21.70;1.00
336;DHT22;156;48.738;9.228;2022-08-07T08:53:13;21.90;1.00
336;DHT22;156;48.738;9.228;2022-08-07T08:55:47;22.00;1.00
336;DHT22;156;48.738;9.228;2022-08-07T08:58:18;21.80;1.00
336;DHT22;156;48.738;9.228;2022-08-07T09:00:51;21.80;1.00
336;DHT22;156;48.738;9.228;2022-08-07T09:03:26;21.60;1.00
336;DHT22;156;48.738;9.228;2022-08-07T09:06:00;21.50;1.00
336;DHT22;156;48.738;9.228;2022-08-07T09:08:37;21.40;1.00
336;DHT22;156;48.738;9.228;2022-08-07T09:11:16;21.50;1.00
336;DHT22;156;48.738;9.228;2022-08-07T09:13:54;21.70;1.00
336;DHT22;156;48.738;9.228;2022-08-07T09:16:31;21.80;1.00
336;DHT22;156;48.738;9.228;2022-08-07T09:19:28;22.00;1.00
336;DHT22;156;48.738;9.228;2022-08-07T09:22:16;22.00;1.00
336;DHT22;156;48.738;9.228;2022-08-07T09:24:51;22.10;1.00
336;DHT22;156;48.738;9.228;2022-08-07T09:27:29;22.00;1.00
336;DHT22;156;48.738;9.228;2022-08-07T09:30:03;21.80;1.00
336;DHT22;156;48.738;9.228;2022-08-07T09:35:39;21.80;1.00
336;DHT22;156;48.738;9.228;2022-08-07T09:38:14;21.80;1.00
336;DHT22;156;48.738;9.228;2022-08-07T09:40:56;21.80;1.00
336;DHT22;156;48.738;9.228;2022-08-07T09:43:35;21.80;1.00
336;DHT22;156;48.738;9.228;2022-08-07T09:46:16;21.90;1.00
336;DHT22;156;48.738;9.228;2022-08-07T09:48:50;22.10;1.00
336;DHT22;156;48.738;9.228;2022-08-07T09:51:37;22.20;1.00
336;DHT22;156;48.738;9.228;2022-08-07T09:54:13;22.20;1.00
336;DHT22;156;48.738;9.228;2022-08-07T10:00:07;22.40;1.00
336;DHT22;156;48.738;9.228;2022-08-07T10:03:04;22.50;1.00
336;DHT22;156;48.738;9.228;2022-08-07T10:09:08;22.80;1.00
336;DHT22;156;48.738;9.228;2022-08-07T10:11:52;22.50;1.00
336;DHT22;156;48.738;9.228;2022-08-07T10:17:37;22.80;1.00
336;DHT22;156;48.738;9.228;2022-08-07T10:20:15;22.90;1.00
336;DHT22;156;48.738;9.228;2022-08-07T10:23:01;22.90;1.00
336;DHT22;156;48.738;9.228;2022-08-07T10:25:38;22.90;1.00
336;DHT22;156;48.738;9.228;2022-08-07T10:28:36;22.90;1.00
336;DHT22;156;48.738;9.228;2022-08-07T10:31:37;22.90;1.00
336;DHT22;156;48.738;9.228;2022-08-07T10:34:16;22.90;1.00
336;DHT22;156;48.738;9.228;2022-08-07T10:36:57;23.10;1.00
336;DHT22;156;48.738;9.228;2022-08-07T10:39:36;23.10;1.00
336;DHT22;156;48.738;9.228;2022-08-07T10:42:17;23.30;1.00
336;DHT22;156;48.738;9.228;2022-08-07T10:44:50;23.40;1.00
336;DHT22;156;48.738;9.228;2022-08-07T10:47:23;23.30;1.00
336;DHT22;156;48.738;9.228;2022-08-07T10:50:00;23.40;1.00
336;DHT22;156;48.738;9.228;2022-08-07T10:52:33;23.50;1.00
336;DHT22;156;48.738;9.228;2022-08-07T10:55:10;23.70;1.00
336;DHT22;156;48.738;9.228;2022-08-07T10:57:45;23.60;1.00
336;DHT22;156;48.738;9.228;2022-08-07T11:00:14;23.80;1.00
336;DHT22;156;48.738;9.228;2022-08-07T11:02:45;23.90;1.00
336;DHT22;156;48.738;9.228;2022-08-07T11:05:29;24.00;1.00
336;DHT22;156;48.738;9.228;2022-08-07T11:08:04;23.80;1.00
336;DHT22;156;48.738;9.228;2022-08-07T11:10:44;23.70;1.00
336;DHT22;156;48.738;9.228;2022-08-07T11:13:19;23.70;1.00
336;DHT22;156;48.738;9.228;2022-08-07T11:15:52;23.80;1.00
336;DHT22;156;48.738;9.228;2022-08-07T11:18:26;23.80;1.00
336;DHT22;156;48.738;9.228;2022-08-07T11:21:02;23.70;1.00
336;DHT22;156;48.738;9.228;2022-08-07T11:23:38;23.60;1.00
336;DHT22;156;48.738;9.228;2022-08-07T11:26:11;23.70;1.00
336;DHT22;156;48.738;9.228;2022-08-07T11:28:47;23.90;1.00
336;DHT22;156;48.738;9.228;2022-08-07T11:31:24;24.10;1.00
336;DHT22;156;48.738;9.228;2022-08-07T11:33:55;24.30;1.00
336;DHT22;156;48.738;9.228;2022-08-07T11:39:31;24.40;1.00
336;DHT22;156;48.738;9.228;2022-08-07T11:42:12;24.60;1.00
336;DHT22;156;48.738;9.228;2022-08-07T11:44:49;24.70;1.00
336;DHT22;156;48.738;9.228;2022-08-07T11:47:28;24.80;1.00
336;DHT22;156;48.738;9.228;2022-08-07T11:50:09;24.70;1.00
336;DHT22;156;48.738;9.228;2022-08-07T11:53:02;24.60;1.00
336;DHT22;156;48.738;9.228;2022-08-07T11:55:54;24.70;1.00
336;DHT22;156;48.738;9.228;2022-08-07T11:58:33;24.50;1.00
336;DHT22;156;48.738;9.228;2022-08-07T12:01:13;24.30;1.00
336;DHT22;156;48.738;9.228;2022-08-07T12:03:52;24.10;1.00
336;DHT22;156;48.738;9.228;2022-08-07T12:06:36;24.30;1.00
336;DHT22;156;48.738;9.228;2022-08-07T12:09:08;24.40;1.00
336;DHT22;156;48.738;9.228;2022-08-07T12:11:44;24.40;1.00
336;DHT22;156;48.738;9.228;2022-08-07T12:14:16;24.70;1.00
336;DHT22;156;48.738;9.228;2022-08-07T12:16:47;24.80;1.00
336;DHT22;156;48.738;9.228;2022-08-07T12:19:33;24.80;1.00
336;DHT22;156;48.738;9.228;2022-08-07T12:22:07;24.80;1.00
336;DHT22;156;48.738;9.228;2022-08-07T12:24:40;24.90;1.00
336;DHT22;156;48.738;9.228;2022-08-07T12:27:28;24.90;1.00
336;DHT22;156;48.738;9.228;2022-08-07T12:30:02;24.90;1.00
336;DHT22;156;48.738;9.228;2022-08-07T12:32:35;25.00;1.00
336;DHT22;156;48.738;9.228;2022-08-07T12:35:07;24.90;1.00
336;DHT22;156;48.738;9.228;2022-08-07T12:37:36;24.70;1.00
336;DHT22;156;48.738;9.228;2022-08-07T12:40:06;25.00;1.00
336;DHT22;156;48.738;9.228;2022-08-07T12:42:36;25.20;1.00
336;DHT22;156;48.738;9.228;2022-08-07T12:45:07;25.40;1.00
336;DHT22;156;48.738;9.228;2022-08-07T12:47:40;25.60;1.00
336;DHT22;156;48.738;9.228;2022-08-07T12:50:15;25.80;1.00
336;DHT22;156;48.738;9.228;2022-08-07T12:52:50;25.70;1.00
336;DHT22;156;48.738;9.228;2022-08-07T12:55:23;25.90;1.00
336;DHT22;156;48.738;9.228;2022-08-07T12:57:55;26.50;1.00
336;DHT22;156;48.738;9.228;2022-08-07T13:00:30;26.70;1.00
336;DHT22;156;48.738;9.228;2022-08-07T13:03:25;26.70;1.00
336;DHT22;156;48.738;9.228;2022-08-07T13:06:02;27.10;1.00
336;DHT22;156;48.738;9.228;2022-08-07T13:08:42;27.50;1.00
336;DHT22;156;48.738;9.228;2022-08-07T13:11:24;27.90;1.00
336;DHT22;156;48.738;9.228;2022-08-07T13:14:02;27.60;1.00
336;DHT22;156;48.738;9.228;2022-08-07T13:16:39;27.50;1.00
336;DHT22;156;48.738;9.228;2022-08-07T13:19:17;27.60;1.00
336;DHT22;156;48.738;9.228;2022-08-07T13:21:51;27.70;1.00
336;DHT22;156;48.738;9.228;2022-08-07T13:24:24;27.70;1.00
336;DHT22;156;48.738;9.228;2022-08-07T13:27:04;27.50;1.00
336;DHT22;156;48.738;9.228;2022-08-07T13:29:39;27.40;1.00
336;DHT22;156;48.738;9.228;2022-08-07T13:32:17;27.60;1.00
336;DHT22;156;48.738;9.228;2022-08-07T13:34:55;27.40;1.00
336;DHT22;156;48.738;9.228;2022-08-07T13:37:28;27.40;1.00
336;DHT22;156;48.738;9.228;2022-08-07T13:40:14;27.10;1.00
336;DHT22;156;48.738;9.228;2022-08-07T13:42:45;27.40;1.00
336;DHT22;156;48.738;9.228;2022-08-07T13:45:14;27.20;1.00
336;DHT22;156;48.738;9.228;2022-08-07T13:47:42;27.20;1.00
336;DHT22;156;48.738;9.228;2022-08-07T13:50:12;27.20;1.00
336;DHT22;156;48.738;9.228;2022-08-07T13:52:42;27.60;1.00
336;DHT22;156;48.738;9.228;2022-08-07T13:55:12;27.70;1.00
336;DHT22;156;48.738;9.228;2022-08-07T13:57:42;27.60;1.00
336;DHT22;156;48.738;9.228;2022-08-07T14:00:10;28.30;1.00
336;DHT22;156;48.738;9.228;2022-08-07T14:02:39;28.70;1.00
336;DHT22;156;48.738;9.228;2022-08-07T14:05:08;28.70;1.00
336;DHT22;156;48.738;9.228;2022-08-07T14:07:41;28.00;1.00
336;DHT22;156;48.738;9.228;2022-08-07T14:10:09;28.40;1.00
336;DHT22;156;48.738;9.228;2022-08-07T14:12:42;28.50;1.00
336;DHT22;156;48.738;9.228;2022-08-07T14:15:19;28.30;1.00
336;DHT22;156;48.738;9.228;2022-08-07T14:17:52;28.20;1.00
336;DHT22;156;48.738;9.228;2022-08-07T14:20:23;28.20;1.00
336;DHT22;156;48.738;9.228;2022-08-07T14:23:00;28.30;1.00
336;DHT22;156;48.738;9.228;2022-08-07T14:25:31;28.50;1.00
336;DHT22;156;48.738;9.228;2022-08-07T14:28:03;28.80;1.00
336;DHT22;156;48.738;9.228;2022-08-07T14:30:32;28.60;1.00
336;DHT22;156;48.738;9.228;2022-08-07T14:33:01;28.50;1.00
336;DHT22;156;48.738;9.228;2022-08-07T14:35:31;28.90;1.00
336;DHT22;156;48.738;9.228;2022-08-07T14:38:00;29.30;1.00
336;DHT22;156;48.738;9.228;2022-08-07T14:40:28;29.10;1.00
336;DHT22;156;48.738;9.228;2022-08-07T14:43:00;29.60;1.00
336;DHT22;156;48.738;9.228;2022-08-07T14:45:31;30.60;1.00
336;DHT22;156;48.738;9.228;2022-08-07T14:48:00;29.70;1.00
336;DHT22;156;48.738;9.228;2022-08-07T14:50:28;30.50;1.00
336;DHT22;156;48.738;9.228;2022-08-07T14:52:57;30.80;1.00
336;DHT22;156;48.738;9.228;2022-08-07T14:55:31;30.20;1.00
336;DHT22;156;48.738;9.228;2022-08-07T14:57:58;30.40;1.00
336;DHT22;156;48.738;9.228;2022-08-07T15:00:29;30.40;1.00
336;DHT22;156;48.738;9.228;2022-08-07T15:02:58;30.00;1.00
336;DHT22;156;48.738;9.228;2022-08-07T15:05:27;29.40;1.00
336;DHT22;156;48.738;9.228;2022-08-07T15:07:56;28.70;1.00
336;DHT22;156;48.738;9.228;2022-08-07T15:10:25;28.10;1.00
336;DHT22;156;48.738;9.228;2022-08-07T15:12:57;28.00;1.00
336;DHT22;156;48.738;9.228;2022-08-07T15:15:32;28.20;1.00
336;DHT22;156;48.738;9.228;2022-08-07T15:18:05;28.40;1.00
336;DHT22;156;48.738;9.228;2022-08-07T15:20:36;28.70;1.00
336;DHT22;156;48.738;9.228;2022-08-07T15:23:08;28.50;1.00
336;DHT22;156;48.738;9.228;2022-08-07T15:25:39;28.40;1.00
336;DHT22;156;48.738;9.228;2022-08-07T15:28:15;28.20;1.00
336;DHT22;156;48.738;9.228;2022-08-07T15:30:45;28.30;1.00
336;DHT22;156;48.738;9.228;2022-08-07T15:33:16;28.60;1.00
336;DHT22;156;48.738;9.228;2022-08-07T15:35:48;28.70;1.00
336;DHT22;156;48.738;9.228;2022-08-07T15:38:17;29.70;1.00
336;DHT22;156;48.738;9.228;2022-08-07T15:40:46;29.80;1.00
336;DHT22;156;48.738;9.228;2022-08-07T15:43:17;30.60;1.00
336;DHT22;156;48.738;9.228;2022-08-07T15:45:47;30.90;1.00
336;DHT22;156;48.738;9.228;2022-08-07T15:48:19;31.30;1.00
336;DHT22;156;48.738;9.228;2022-08-07T15:50:49;31.40;1.00
336;DHT22;156;48.738;9.228;2022-08-07T15:53:24;31.60;1.00
336;DHT22;156;48.738;9.228;2022-08-07T15:55:54;31.90;1.00
336;DHT22;156;48.738;9.228;2022-08-07T15:58:33;32.10;1.00
336;DHT22;156;48.738;9.228;2022-08-07T16:01:03;32.10;1.00
336;DHT22;156;48.738;9.228;2022-08-07T16:03:33;32.30;1.00
336;DHT22;156;48.738;9.228;2022-08-07T16:06:04;31.90;1.00
336;DHT22;156;48.738;9.228;2022-08-07T16:08:32;31.00;1.00
336;DHT22;156;48.738;9.228;2022-08-07T16:11:03;30.40;1.00
336;DHT22;156;48.738;9.228;2022-08-07T16:13:49;30.30;1.00
336;DHT22;156;48.738;9.228;2022-08-07T16:16:30;30.00;1.00
336;DHT22;156;48.738;9.228;2022-08-07T16:19:13;30.10;1.00
336;DHT22;156;48.738;9.228;2022-08-07T16:21:48;30.90;1.00
336;DHT22;156;48.738;9.228;2022-08-07T16:24:27;32.00;1.00
336;DHT22;156;48.738;9.228;2022-08-07T16:27:02;32.50;1.00
336;DHT22;156;48.738;9.228;2022-08-07T16:29:49;33.10;1.00
336;DHT22;156;48.738;9.228;2022-08-07T16:32:24;32.70;1.00
336;DHT22;156;48.738;9.228;2022-08-07T16:34:55;33.00;1.00
336;DHT22;156;48.738;9.228;2022-08-07T16:37:46;32.40;1.00
336;DHT22;156;48.738;9.228;2022-08-07T16:40:42;32.90;1.00
336;DHT22;156;48.738;9.228;2022-08-07T16:43:22;32.30;1.00
336;DHT22;156;48.738;9.228;2022-08-07T16:46:27;32.30;1.00
336;DHT22;156;48.738;9.228;2022-08-07T16:52:19;31.70;1.00
336;DHT22;156;48.738;9.228;2022-08-07T16:54:58;32.50;1.00
336;DHT22;156;48.738;9.228;2022-08-07T16:57:32;32.90;1.00
336;DHT22;156;48.738;9.228;2022-08-07T17:00:08;32.20;1.00
336;DHT22;156;48.738;9.228;2022-08-07T17:05:43;31.60;1.00
336;DHT22;156;48.738;9.228;2022-08-07T17:08:17;31.60;1.00
336;DHT22;156;48.738;9.228;2022-08-07T17:10:47;31.10;1.00
336;DHT22;156;48.738;9.228;2022-08-07T17:13:38;30.90;1.00
336;DHT22;156;48.738;9.228;2022-08-07T17:16:11;31.10;1.00
336;DHT22;156;48.738;9.228;2022-08-07T17:18:45;31.00;1.00
336;DHT22;156;48.738;9.228;2022-08-07T17:21:15;30.90;1.00
336;DHT22;156;48.738;9.228;2022-08-07T17:23:53;31.30;1.00
336;DHT22;156;48.738;9.228;2022-08-07T17:26:26;31.40;1.00
336;DHT22;156;48.738;9.228;2022-08-07T17:29:07;31.60;1.00
336;DHT22;156;48.738;9.228;2022-08-07T17:31:46;31.60;1.00
336;DHT22;156;48.738;9.228;2022-08-07T17:34:26;31.00;1.00
336;DHT22;156;48.738;9.228;2022-08-07T17:37:00;31.00;1.00
336;DHT22;156;48.738;9.228;2022-08-07T17:39:34;31.10;1.00
336;DHT22;156;48.738;9.228;2022-08-07T17:42:08;31.80;1.00
336;DHT22;156;48.738;9.228;2022-08-07T17:44:43;31.90;1.00
336;DHT22;156;48.738;9.228;2022-08-07T17:47:16;31.80;1.00
336;DHT22;156;48.738;9.228;2022-08-07T17:49:52;31.80;1.00
336;DHT22;156;48.738;9.228;2022-08-07T17:52:26;31.80;1.00